Saturday, January 19, 2019, 12:07 AM EST
Back to Local

KLCI, Laconia, Laconia Municipal Airport

Location: Laconia, NH, United States Lat: 43.567
Local Time: 12:07 AM EST ( 5:07 GMT) Lon: -71.417
Time Zone: US/Eastern Elev: 544 ft

Show me the last for .
Show Decoded

2019-01-18 22:56 METAR KLCI 190356Z AUTO 27007KT 240V310 10SM BKN035 OVC043 M02/M05 A3007 RMK AO2
                 SNE50 SLP201 P0000 T10221050 FZRANO $ =
2019-01-18 22:34 METAR KLCI 190334Z AUTO 27006KT 9SM -SN FEW025 OVC033 M03/M04 A3006 RMK AO2
                 P0000 FZRANO $ =
2019-01-18 21:56 METAR KLCI 190256Z AUTO 27005KT 10SM -SN BKN027 BKN034 OVC050 M04/M06 A3005 RMK
                 AO2 SNB55 SLP195 P0000 60000 T10391056 53011 FZRANO $ =
2019-01-18 20:56 METAR KLCI 190156Z AUTO 00000KT 10SM OVC046 M06/M07 A3002 RMK AO2 SLP184
                 T10561067 FZRANO $ =
2019-01-18 19:56 METAR KLCI 190056Z AUTO 25004KT 10SM OVC043 M07/M08 A3002 RMK AO2 SLP186
                 T10721078 FZRANO $ =
2019-01-18 18:56 METAR KLCI 182356Z AUTO 23004KT 10SM SCT027 BKN049 M08/M09 A3001 RMK AO2 SNE26
                 SLP184 P0000 60000 T10781089 11050 21078 53003 FZRANO $ =
2019-01-18 18:12 METAR KLCI 182312Z AUTO 29003KT 9SM -SN OVC029 M06/M08 A3000 RMK AO2 P0000
                 FZRANO $ =
2019-01-18 16:56 METAR KLCI 182156Z AUTO 00000KT 6SM -SN BR FEW033 OVC065 M06/M08 A3001 RMK AO2
                 SLP182 P0000 T10561078 FZRANO $ =
2019-01-18 16:41 METAR KLCI 182141Z AUTO 00000KT 6SM -SN BR FEW026 SCT032 OVC070 M06/M08 A3000
                 RMK AO2 P0000 FZRANO $ =
2019-01-18 16:27 METAR KLCI 182127Z AUTO 00000KT 2 1/2SM -SN SCT026 BKN033 OVC070 M06/M08 A3000
                 RMK AO2 VIS 1V5 P0000 FZRANO $ =
2019-01-18 16:17 METAR KLCI 182117Z AUTO 00000KT 1 3/4SM -SN SCT022 OVC027 M05/M08 A3000 RMK AO2
                 VIS 1 1/4V4 P0000 FZRANO $ =
2019-01-18 15:56 METAR KLCI 182056Z AUTO 00000KT 7SM -SN OVC022 M05/M09 A3000 RMK AO2 SLP180
                 P0000 60000 T10501089 55005 FZRANO $ =
2019-01-18 14:56 METAR KLCI 181956Z AUTO 00000KT 6SM -SN OVC023 M06/M09 A2999 RMK AO2 SNB04
                 SLP176 P0000 T10561094 FZRANO $ =
2019-01-18 13:56 METAR KLCI 181856Z AUTO 00000KT 10SM OVC023 M06/M11 A3000 RMK AO2 SNB03E42
                 SLP179 P0000 T10561106 FZRANO $ =
2019-01-18 12:56 METAR KLCI 181756Z AUTO 08005KT 10SM OVC019 M06/M11 A3002 RMK AO2 SLP185 60000
                 T10611106 11061 21094 58037 FZRANO $ =
2019-01-18 11:56 METAR KLCI 181656Z AUTO 00000KT 10SM OVC021 M07/M12 A3006 RMK AO2 SLP201
                 T10671117 FZRANO $ =
2019-01-18 10:56 METAR KLCI 181556Z AUTO 00000KT 10SM OVC021 M07/M13 A3010 RMK AO2 SNB30E41
                 SLP214 P0000 T10721133 FZRANO $ =
2019-01-18 09:56 METAR KLCI 181456Z AUTO 00000KT 10SM BKN023 OVC038 M08/M14 A3013 RMK AO2
                 SNB09E26 SLP224 P0000 60000 T10781139 56007 FZRANO $ =
2019-01-18 08:56 METAR KLCI 181356Z AUTO 00000KT 9SM OVC042 M09/M13 A3013 RMK AO2 SNB10E51 SLP223
                 P0000 T10891133 FZRANO $ =
2019-01-18 07:56 METAR KLCI 181256Z AUTO 00000KT 10SM OVC044 M09/M13 A3015 RMK AO2 SLP227
                 T10891133 FZRANO $ =
2019-01-18 05:56 METAR KLCI 181056Z AUTO 00000KT 10SM FEW032 OVC050 M10/M14 A3015 RMK AO2 SLP228
                 T11001144 FZRANO $ =
2019-01-18 04:56 METAR KLCI 180956Z AUTO 00000KT 10SM BKN032 OVC060 M11/M14 A3016 RMK AO2 SLP231
                 T11061144 FZRANO $ =
2019-01-18 03:56 METAR KLCI 180856Z AUTO 00000KT 10SM FEW036 BKN050 OVC120 M10/M15 A3019 RMK AO2
                 SLP243 T11001150 58021 FZRANO $ =
2019-01-18 02:56 METAR KLCI 180756Z AUTO 00000KT 10SM BKN075 OVC090 M09/M15 A3022 RMK AO2 SLP255
                 T10941150 FZRANO $ =
2019-01-18 01:56 METAR KLCI 180656Z AUTO 31004KT 10SM BKN070 BKN085 OVC100 M09/M14 A3024 RMK AO2
                 SLP260 T10891144 FZRANO $ =
2019-01-18 00:56 METAR KLCI 180556Z AUTO 23003KT 10SM OVC090 M10/M14 A3025 RMK AO2 SLP265
                 T11001139 11094 21111 58019 FZRANO $ =

Support USWX by starting your Amazon purchase here.